createdAt,value
2022-11-23T00:01:30.577Z,2.72
2022-11-23T00:04:00.254Z,2.72
2022-11-23T00:06:26.955Z,2.75
2022-11-23T00:08:54.312Z,2.76
2022-11-23T00:11:23.043Z,2.74
2022-11-23T00:13:49.764Z,2.75
2022-11-23T00:16:19.237Z,2.74
2022-11-23T00:18:45.712Z,2.74
2022-11-23T00:21:15.075Z,2.81
2022-11-23T00:23:41.809Z,2.75
2022-11-23T00:26:08.599Z,2.75
2022-11-23T00:28:38.625Z,2.75
2022-11-23T00:31:06.501Z,2.76
2022-11-23T00:33:33.239Z,2.77
2022-11-23T00:36:08.563Z,2.81
2022-11-23T00:38:35.035Z,2.82
2022-11-23T00:41:10.913Z,2.74
2022-11-23T00:43:37.320Z,2.78
2022-11-23T00:46:10.136Z,2.77
2022-11-23T00:48:37.602Z,2.73
2022-11-23T00:51:07.162Z,2.77
2022-11-23T00:53:34.226Z,2.79
2022-11-23T00:56:00.754Z,2.76
2022-11-23T00:58:27.571Z,2.79
2022-11-23T01:01:09.601Z,2.81
2022-11-23T01:03:38.722Z,2.81
2022-11-23T01:06:16.786Z,2.81
2022-11-23T01:08:43.668Z,2.79
2022-11-23T01:11:12.573Z,2.80
2022-11-23T01:13:40.858Z,2.76
2022-11-23T01:16:13.058Z,2.82
2022-11-23T01:18:39.460Z,2.80
2022-11-23T01:21:06.104Z,2.83
2022-11-23T01:23:32.571Z,2.84
2022-11-23T01:26:05.689Z,2.85
2022-11-23T01:28:32.547Z,2.83
2022-11-23T01:31:14.818Z,2.84
2022-11-23T01:33:41.535Z,2.83
2022-11-23T01:36:19.964Z,2.84
2022-11-23T01:38:47.869Z,2.85
2022-11-23T01:41:17.558Z,2.88
2022-11-23T01:43:44.655Z,2.88
2022-11-23T01:46:12.085Z,2.88
2022-11-23T01:48:46.848Z,2.86
2022-11-23T01:51:16.647Z,2.84
2022-11-23T01:53:44.386Z,2.85
2022-11-23T01:56:15.403Z,2.85
2022-11-23T01:58:46.282Z,2.83
2022-11-23T02:01:14.358Z,2.87
2022-11-23T02:03:43.453Z,2.85
2022-11-23T02:06:16.366Z,2.88
2022-11-23T02:08:43.770Z,2.84
2022-11-23T02:11:12.742Z,2.92
2022-11-23T02:13:39.777Z,2.89
2022-11-23T02:16:06.362Z,2.90
2022-11-23T02:18:35.624Z,2.91
2022-11-23T02:21:03.424Z,2.91
2022-11-23T02:23:47.812Z,2.91
2022-11-23T02:26:44.027Z,2.90
2022-11-23T02:29:16.184Z,2.95
2022-11-23T02:31:42.577Z,2.91
2022-11-23T02:34:09.127Z,2.81
2022-11-23T02:36:47.431Z,2.83
2022-11-23T02:39:18.552Z,2.85
2022-11-23T02:41:48.807Z,2.80
2022-11-23T02:44:44.223Z,2.83
2022-11-23T02:47:11.677Z,2.84
2022-11-23T02:49:40.698Z,2.85
2022-11-23T02:52:08.298Z,2.85
2022-11-23T02:54:35.220Z,2.84
2022-11-23T02:57:01.782Z,2.86
2022-11-23T02:59:29.278Z,2.84
2022-11-23T03:01:55.956Z,2.84
2022-11-23T03:04:27.534Z,2.84
2022-11-23T03:06:54.406Z,2.80
2022-11-23T03:09:20.839Z,2.85
2022-11-23T03:11:47.287Z,2.87
2022-11-23T03:14:13.721Z,2.90
2022-11-23T03:16:40.085Z,2.87
2022-11-23T03:19:06.533Z,2.92
2022-11-23T03:21:32.957Z,2.92
2022-11-23T03:23:59.365Z,2.92
2022-11-23T03:26:25.801Z,2.91
2022-11-23T03:28:52.186Z,2.96
2022-11-23T03:31:18.556Z,3.00
2022-11-23T03:33:44.956Z,2.95
2022-11-23T03:36:11.369Z,2.97
2022-11-23T03:38:37.725Z,2.97
2022-11-23T03:41:04.138Z,2.99
2022-11-23T03:43:30.558Z,2.97
2022-11-23T03:45:56.976Z,2.99
2022-11-23T03:48:23.459Z,3.00
2022-11-23T03:50:49.874Z,2.97
2022-11-23T03:53:16.324Z,3.00
2022-11-23T03:55:42.688Z,2.96
2022-11-23T03:58:09.126Z,3.01
2022-11-23T04:00:35.658Z,2.98
2022-11-23T04:03:02.231Z,2.99
2022-11-23T04:05:28.777Z,3.03
2022-11-23T04:07:55.186Z,3.00
2022-11-23T04:10:21.959Z,3.02
2022-11-23T04:12:54.220Z,3.04
2022-11-23T04:15:20.865Z,2.99
2022-11-23T04:17:47.457Z,3.02
2022-11-23T04:20:14.798Z,3.00
2022-11-23T04:22:41.343Z,3.02
2022-11-23T04:25:08.300Z,3.01
2022-11-23T04:27:34.726Z,3.00
2022-11-23T04:30:01.119Z,3.02
2022-11-23T04:32:27.540Z,3.02
2022-11-23T04:34:53.973Z,3.04
2022-11-23T04:37:20.369Z,3.05
2022-11-23T04:39:46.794Z,3.06
2022-11-23T04:42:14.000Z,3.05
2022-11-23T04:44:40.392Z,3.06
2022-11-23T04:47:07.488Z,3.11
2022-11-23T04:49:34.185Z,3.10
2022-11-23T04:52:00.816Z,3.09
2022-11-23T04:54:27.207Z,3.11
2022-11-23T04:56:54.205Z,3.09
2022-11-23T04:59:22.097Z,3.12
2022-11-23T05:01:49.336Z,3.12
2022-11-23T05:04:17.937Z,3.11
2022-11-23T05:06:45.193Z,3.12
2022-11-23T05:09:11.868Z,3.08
2022-11-23T05:11:38.413Z,3.08
2022-11-23T05:14:05.053Z,3.09
2022-11-23T05:16:31.437Z,3.12
2022-11-23T05:18:57.809Z,3.12
2022-11-23T05:21:24.181Z,3.14
2022-11-23T05:23:50.644Z,3.15
2022-11-23T05:26:17.072Z,3.15
2022-11-23T05:28:43.465Z,3.12
2022-11-23T05:31:10.202Z,3.12
2022-11-23T05:33:36.904Z,3.16
2022-11-23T05:36:03.734Z,3.14
2022-11-23T05:38:30.138Z,3.13
2022-11-23T05:40:56.559Z,3.17
2022-11-23T05:43:22.944Z,3.17
2022-11-23T05:45:49.788Z,3.19
2022-11-23T05:48:16.284Z,3.22
2022-11-23T05:50:42.683Z,3.16
2022-11-23T05:53:09.870Z,3.19
2022-11-23T05:55:36.396Z,3.19
2022-11-23T05:58:03.729Z,3.17
2022-11-23T06:00:30.212Z,3.20
2022-11-23T06:03:01.513Z,3.21
2022-11-23T06:05:29.005Z,3.20
2022-11-23T06:07:55.926Z,3.24
2022-11-23T06:10:23.047Z,3.17
2022-11-23T06:12:50.028Z,3.20
2022-11-23T06:15:17.896Z,3.22
2022-11-23T06:17:44.639Z,3.20
2022-11-23T06:20:11.406Z,3.17
2022-11-23T06:22:37.792Z,3.16
2022-11-23T06:25:04.420Z,3.18
2022-11-23T06:27:30.860Z,3.19
2022-11-23T06:29:57.296Z,3.20
2022-11-23T06:32:23.705Z,3.18
2022-11-23T06:34:50.139Z,3.24
2022-11-23T06:37:16.637Z,3.21
2022-11-23T06:39:43.124Z,3.19
2022-11-23T06:42:38.558Z,3.21
2022-11-23T06:44:55.957Z,3.24
2022-11-23T06:47:26.445Z,3.26
2022-11-23T06:49:53.126Z,3.24
2022-11-23T06:52:19.612Z,3.20
2022-11-23T06:54:46.410Z,3.22
2022-11-23T06:57:13.016Z,3.24
2022-11-23T06:59:44.315Z,3.25
2022-11-23T07:02:12.132Z,3.38
2022-11-23T07:04:38.537Z,3.36
2022-11-23T07:07:05.114Z,3.24
2022-11-23T07:09:31.841Z,3.17
2022-11-23T07:11:58.500Z,3.21
2022-11-23T07:14:24.892Z,3.19
2022-11-23T07:16:51.596Z,3.23
2022-11-23T07:19:17.960Z,3.26
2022-11-23T07:21:45.718Z,3.26
2022-11-23T07:24:12.181Z,3.29
2022-11-23T07:26:38.574Z,3.30
2022-11-23T07:29:05.022Z,3.30
2022-11-23T07:31:31.496Z,3.30
2022-11-23T07:33:57.928Z,3.30
2022-11-23T07:36:24.732Z,3.34
2022-11-23T07:38:51.133Z,3.41
2022-11-23T07:41:17.571Z,3.38
2022-11-23T07:43:43.970Z,3.40
2022-11-23T07:46:10.350Z,3.39
2022-11-23T07:48:36.894Z,3.40
2022-11-23T07:51:03.572Z,3.40
2022-11-23T07:53:30.248Z,3.44
2022-11-23T07:56:00.582Z,3.46
2022-11-23T07:58:27.366Z,3.50
2022-11-23T08:00:53.792Z,3.47
2022-11-23T08:03:27.685Z,3.52
2022-11-23T08:05:54.783Z,3.51
2022-11-23T08:08:21.186Z,3.58
2022-11-23T08:10:53.000Z,3.56
2022-11-23T08:13:20.962Z,3.64
2022-11-23T08:15:53.231Z,3.67
2022-11-23T08:18:21.645Z,3.70
2022-11-23T08:20:48.159Z,3.72
2022-11-23T08:23:14.606Z,3.75
2022-11-23T08:25:41.069Z,3.79
2022-11-23T08:28:07.525Z,3.81
2022-11-23T08:30:34.421Z,3.86
2022-11-23T08:33:08.272Z,3.84
2022-11-23T08:35:36.502Z,3.90
2022-11-23T08:38:03.997Z,3.90
2022-11-23T08:40:31.130Z,3.89
2022-11-23T08:42:57.563Z,3.90
2022-11-23T08:45:24.461Z,3.87
2022-11-23T08:47:51.368Z,3.92
2022-11-23T08:50:18.114Z,3.91
2022-11-23T08:52:44.624Z,3.90
2022-11-23T08:55:11.591Z,3.91
2022-11-23T08:57:38.420Z,3.90
2022-11-23T09:00:05.852Z,3.93
2022-11-23T09:02:32.353Z,3.95
2022-11-23T09:04:58.800Z,4.01
2022-11-23T09:07:25.241Z,4.07
2022-11-23T09:09:51.656Z,4.04
2022-11-23T09:12:18.071Z,4.08
2022-11-23T09:14:44.464Z,4.06
2022-11-23T09:17:10.900Z,4.13
2022-11-23T09:19:37.262Z,4.27
2022-11-23T09:22:03.710Z,4.26
2022-11-23T09:24:30.252Z,4.30
2022-11-23T09:26:56.913Z,4.27
2022-11-23T09:29:25.318Z,4.30
2022-11-23T09:31:51.809Z,4.33
2022-11-23T09:34:18.204Z,4.39
2022-11-23T09:36:44.598Z,4.48
2022-11-23T09:39:11.712Z,4.46
2022-11-23T09:41:50.176Z,4.53
2022-11-23T09:44:55.354Z,4.58
2022-11-23T09:47:28.835Z,4.59
2022-11-23T09:50:03.143Z,4.60
2022-11-23T09:52:30.754Z,4.64
2022-11-23T09:55:03.226Z,4.65
2022-11-23T09:57:33.658Z,4.73
2022-11-23T10:00:29.365Z,4.75
2022-11-23T10:02:55.795Z,4.77
2022-11-23T10:05:25.357Z,4.86
2022-11-23T10:08:13.227Z,4.86
2022-11-23T10:10:44.397Z,4.87
2022-11-23T10:13:28.793Z,4.96
2022-11-23T10:16:21.230Z,4.91
2022-11-23T10:19:15.460Z,4.99
2022-11-23T10:22:20.028Z,5.03
2022-11-23T10:24:50.851Z,5.07
2022-11-23T10:27:20.666Z,5.10
2022-11-23T10:29:48.860Z,5.16
2022-11-23T10:32:31.119Z,5.15
2022-11-23T10:35:04.122Z,5.18
2022-11-23T10:37:32.162Z,5.19
2022-11-23T10:39:58.777Z,5.25
2022-11-23T10:42:32.176Z,5.26
2022-11-23T10:45:00.965Z,5.20
2022-11-23T10:47:39.193Z,5.27
2022-11-23T10:50:27.554Z,5.31
2022-11-23T10:52:57.850Z,5.27
2022-11-23T10:55:28.548Z,5.23
2022-11-23T10:57:56.132Z,5.22
2022-11-23T11:00:30.043Z,5.29
2022-11-23T11:02:58.687Z,5.24
2022-11-23T11:06:07.096Z,5.28
2022-11-23T11:08:20.903Z,5.25
2022-11-23T11:10:58.979Z,5.31
2022-11-23T11:13:41.785Z,5.25
2022-11-23T11:16:35.864Z,5.34
2022-11-23T11:19:36.010Z,5.34
2022-11-23T11:22:24.485Z,5.37
2022-11-23T11:24:51.284Z,5.41
2022-11-23T11:27:22.742Z,5.44
2022-11-23T11:29:52.737Z,5.43
2022-11-23T11:32:38.722Z,5.42
2022-11-23T11:35:26.922Z,5.50
2022-11-23T11:38:00.002Z,5.48
2022-11-23T11:40:33.317Z,5.50
2022-11-23T11:43:02.640Z,5.49
2022-11-23T11:45:38.602Z,5.57
2022-11-23T11:48:14.876Z,5.57
2022-11-23T11:50:53.661Z,5.56
2022-11-23T11:53:53.211Z,5.62
2022-11-23T11:56:30.274Z,5.67
2022-11-23T11:59:23.852Z,5.63
2022-11-23T12:01:50.200Z,5.68
2022-11-23T12:04:35.711Z,5.72
2022-11-23T12:07:09.606Z,5.72
2022-11-23T12:09:42.391Z,5.74
2022-11-23T12:12:16.054Z,5.77
2022-11-23T12:14:43.349Z,5.76
2022-11-23T12:17:33.548Z,5.80
2022-11-23T12:20:24.418Z,5.84
2022-11-23T12:23:18.979Z,5.82
2022-11-23T12:25:58.573Z,5.84
2022-11-23T12:28:52.682Z,5.88
2022-11-23T12:32:04.297Z,5.92
2022-11-23T12:34:48.367Z,5.96
2022-11-23T12:37:31.375Z,5.97
2022-11-23T12:40:11.074Z,6.00
2022-11-23T12:43:12.707Z,6.00
2022-11-23T12:45:48.381Z,6.02
2022-11-23T12:48:20.650Z,6.02
2022-11-23T12:50:59.020Z,6.05
2022-11-23T12:53:42.723Z,6.02
2022-11-23T12:56:47.335Z,5.99
2022-11-23T12:59:17.289Z,6.01
2022-11-23T13:01:53.416Z,5.98
2022-11-23T13:04:37.510Z,5.96
2022-11-23T13:07:49.458Z,5.96
2022-11-23T13:10:35.233Z,5.98
2022-11-23T13:13:16.223Z,5.95
2022-11-23T13:16:05.298Z,5.92
2022-11-23T13:19:13.241Z,5.92
2022-11-23T13:21:44.452Z,5.93
2022-11-23T13:24:31.542Z,5.92
2022-11-23T13:27:31.434Z,5.94
2022-11-23T13:30:01.466Z,5.94
2022-11-23T13:32:40.390Z,5.96
2022-11-23T13:35:18.775Z,5.95
2022-11-23T13:37:54.283Z,6.00
2022-11-23T13:40:22.499Z,5.99
2022-11-23T13:42:51.947Z,5.92
2022-11-23T13:45:25.880Z,5.95
2022-11-23T13:48:55.445Z,5.96
2022-11-23T13:51:06.309Z,5.94
2022-11-23T13:53:42.950Z,5.93
2022-11-23T13:56:29.166Z,5.97
2022-11-23T13:58:59.028Z,5.95
2022-11-23T14:02:03.121Z,5.93
2022-11-23T14:04:48.193Z,5.92
2022-11-23T14:07:27.364Z,5.87
2022-11-23T14:10:21.341Z,5.88
2022-11-23T14:13:08.582Z,5.89
2022-11-23T14:15:38.780Z,5.89
2022-11-23T14:18:32.826Z,5.86
2022-11-23T14:21:14.735Z,5.82
2022-11-23T14:24:15.719Z,5.83
2022-11-23T14:26:42.395Z,5.81
2022-11-23T14:29:17.915Z,5.80
2022-11-23T14:32:02.636Z,5.80
2022-11-23T14:34:37.794Z,5.52
2022-11-23T14:37:22.425Z,5.64
2022-11-23T14:40:03.112Z,5.76
2022-11-23T14:42:31.056Z,5.65
2022-11-23T14:45:03.937Z,5.66
2022-11-23T14:47:32.073Z,5.62
2022-11-23T14:49:58.900Z,5.65
2022-11-23T14:52:31.811Z,5.65
2022-11-23T14:55:01.572Z,5.66
2022-11-23T14:57:46.645Z,5.61
2022-11-23T15:00:43.941Z,5.65
2022-11-23T15:03:48.682Z,5.62
2022-11-23T15:06:12.730Z,5.65
2022-11-23T15:08:50.429Z,5.60
2022-11-23T15:11:27.349Z,5.58
2022-11-23T15:14:04.671Z,5.57
2022-11-23T15:16:40.049Z,5.54
2022-11-23T15:19:27.569Z,5.56
2022-11-23T15:21:55.513Z,5.53
2022-11-23T15:24:28.526Z,5.55
2022-11-23T15:27:12.068Z,5.56
2022-11-23T15:29:39.835Z,5.58
2022-11-23T15:32:32.655Z,5.54
2022-11-23T15:35:06.795Z,5.55
2022-11-23T15:37:41.511Z,5.52
2022-11-23T15:40:13.636Z,5.51
2022-11-23T15:42:40.892Z,5.54
2022-11-23T15:45:33.955Z,5.55
2022-11-23T15:48:05.117Z,5.51
2022-11-23T15:50:34.293Z,5.50
2022-11-23T15:53:01.835Z,5.58
2022-11-23T15:55:30.150Z,5.42
2022-11-23T15:57:57.275Z,5.48
2022-11-23T16:00:26.158Z,5.40
2022-11-23T16:02:53.047Z,5.39
2022-11-23T16:05:23.806Z,5.38
2022-11-23T16:08:01.357Z,5.36
2022-11-23T16:10:33.403Z,5.36
2022-11-23T16:13:01.918Z,5.39
2022-11-23T16:15:37.585Z,5.34
2022-11-23T16:18:25.174Z,5.35
2022-11-23T16:20:55.971Z,5.29
2022-11-23T16:23:28.727Z,5.28
2022-11-23T16:25:59.395Z,5.27
2022-11-23T16:28:38.172Z,5.27
2022-11-23T16:31:05.091Z,5.27
2022-11-23T16:33:31.600Z,5.21
2022-11-23T16:35:58.280Z,5.23
2022-11-23T16:38:25.750Z,5.23
2022-11-23T16:40:52.361Z,5.23
2022-11-23T16:43:19.044Z,5.22
2022-11-23T16:45:47.750Z,5.21
2022-11-23T16:48:26.134Z,5.20
2022-11-23T16:50:57.005Z,5.16
2022-11-23T16:53:26.750Z,5.15
2022-11-23T16:55:54.557Z,5.08
2022-11-23T16:58:22.157Z,5.03
2022-11-23T17:00:49.580Z,4.94
2022-11-23T17:03:17.441Z,4.93
2022-11-23T17:05:43.908Z,4.87
2022-11-23T17:08:10.510Z,4.83
2022-11-23T17:10:38.942Z,4.81
2022-11-23T17:13:11.180Z,4.70
2022-11-23T17:15:37.989Z,4.72
2022-11-23T17:18:04.526Z,4.71
2022-11-23T17:20:31.132Z,4.70
2022-11-23T17:23:00.948Z,4.67
2022-11-23T17:25:27.835Z,4.62
2022-11-23T17:27:54.354Z,4.58
2022-11-23T17:30:22.273Z,4.55
2022-11-23T17:32:49.560Z,4.48
2022-11-23T17:35:16.847Z,4.45
2022-11-23T17:37:43.446Z,4.47
2022-11-23T17:40:21.421Z,4.43
2022-11-23T17:42:48.005Z,4.35
2022-11-23T17:45:14.862Z,4.44
2022-11-23T17:47:43.073Z,4.24
2022-11-23T17:50:13.804Z,4.17
2022-11-23T17:52:45.066Z,4.17
2022-11-23T17:55:12.702Z,4.17
2022-11-23T17:57:39.246Z,4.13
2022-11-23T18:00:12.180Z,4.06
2022-11-23T18:02:38.596Z,4.09
2022-11-23T18:05:05.291Z,4.07
2022-11-23T18:07:31.794Z,4.03
2022-11-23T18:09:58.343Z,4.02
2022-11-23T18:12:24.741Z,3.88
2022-11-23T18:14:51.227Z,3.86
2022-11-23T18:17:18.826Z,3.79
2022-11-23T18:19:45.248Z,3.86
2022-11-23T18:22:11.640Z,3.73
2022-11-23T18:24:38.166Z,3.67
2022-11-23T18:27:04.633Z,3.62
2022-11-23T18:29:31.489Z,3.59
2022-11-23T18:31:58.057Z,3.59
2022-11-23T18:34:24.507Z,3.68
2022-11-23T18:36:51.012Z,3.50
2022-11-23T18:39:17.425Z,3.35
2022-11-23T18:41:43.834Z,3.35
2022-11-23T18:44:10.418Z,3.37
2022-11-23T18:46:36.901Z,3.19
2022-11-23T18:49:03.544Z,3.13
2022-11-23T18:51:29.985Z,3.06
2022-11-23T18:53:57.686Z,3.01
2022-11-23T18:56:24.166Z,3.15
2022-11-23T18:58:50.730Z,3.13
2022-11-23T19:01:19.790Z,3.13
2022-11-23T19:03:49.003Z,3.00
2022-11-23T19:06:17.610Z,3.01
2022-11-23T19:08:50.205Z,2.93
2022-11-23T19:11:27.370Z,2.71
2022-11-23T19:13:56.445Z,2.53
2022-11-23T19:16:25.186Z,2.60
2022-11-23T19:18:59.342Z,2.78
2022-11-23T19:21:28.601Z,2.76
2022-11-23T19:23:56.767Z,2.82
2022-11-23T19:26:24.173Z,2.95
2022-11-23T19:28:51.936Z,2.88
2022-11-23T19:31:23.809Z,2.84
2022-11-23T19:33:52.396Z,2.97
2022-11-23T19:36:21.907Z,3.07
2022-11-23T19:38:49.253Z,2.99
2022-11-23T19:41:16.995Z,3.04
2022-11-23T19:43:43.448Z,2.95
2022-11-23T19:46:12.647Z,3.10
2022-11-23T19:48:40.285Z,2.94
2022-11-23T19:51:11.745Z,2.97
2022-11-23T19:53:39.949Z,2.88
2022-11-23T19:56:30.340Z,2.89
2022-11-23T19:58:58.595Z,2.94
2022-11-23T20:01:31.993Z,2.92
2022-11-23T20:04:08.012Z,2.97
2022-11-23T20:06:37.147Z,2.87
2022-11-23T20:09:09.705Z,2.85
2022-11-23T20:11:38.794Z,2.89
2022-11-23T20:14:06.112Z,2.75
2022-11-23T20:16:33.576Z,2.83
2022-11-23T20:19:02.632Z,2.77
2022-11-23T20:21:30.754Z,2.75
2022-11-23T20:24:05.242Z,2.75
2022-11-23T20:26:33.428Z,2.74
2022-11-23T20:29:00.488Z,2.73
2022-11-23T20:31:29.138Z,2.73
2022-11-23T20:33:56.577Z,2.79
2022-11-23T20:36:28.683Z,2.77
2022-11-23T20:38:56.242Z,2.74
2022-11-23T20:41:28.522Z,2.76
2022-11-23T20:43:57.407Z,2.79
2022-11-23T20:46:53.604Z,2.61
2022-11-23T20:49:12.089Z,2.67
2022-11-23T20:51:38.784Z,2.70
2022-11-23T20:54:07.354Z,2.59
2022-11-23T20:56:33.875Z,2.64
2022-11-23T20:59:00.611Z,2.55
2022-11-23T21:01:28.057Z,2.54
2022-11-23T21:03:59.396Z,2.61
2022-11-23T21:06:26.817Z,2.53
2022-11-23T21:08:54.611Z,2.52
2022-11-23T21:11:45.277Z,2.61
2022-11-23T21:14:17.768Z,2.41
2022-11-23T21:16:55.071Z,2.38
2022-11-23T21:19:24.301Z,2.25
2022-11-23T21:21:50.839Z,2.33
2022-11-23T21:24:17.656Z,2.30
2022-11-23T21:26:44.171Z,2.35
2022-11-23T21:29:11.428Z,2.03
2022-11-23T21:31:40.176Z,2.01
2022-11-23T21:34:10.404Z,2.10
2022-11-23T21:36:41.380Z,2.21
2022-11-23T21:39:10.420Z,2.28
2022-11-23T21:41:37.980Z,2.18
2022-11-23T21:44:09.220Z,2.48
2022-11-23T21:46:40.392Z,2.53
2022-11-23T21:49:07.944Z,2.37
2022-11-23T21:51:35.559Z,2.23
2022-11-23T21:54:05.406Z,2.26
2022-11-23T21:56:32.335Z,2.41
2022-11-23T21:58:59.316Z,2.28
2022-11-23T22:01:29.542Z,2.33
2022-11-23T22:03:59.946Z,2.29
2022-11-23T22:06:26.609Z,2.35
2022-11-23T22:08:55.091Z,2.34
2022-11-23T22:11:27.140Z,2.36
2022-11-23T22:13:56.499Z,2.40
2022-11-23T22:16:26.321Z,2.37
2022-11-23T22:18:55.792Z,2.38
2022-11-23T22:21:24.934Z,2.45
2022-11-23T22:23:51.502Z,2.45
2022-11-23T22:26:19.341Z,2.44
2022-11-23T22:28:48.067Z,2.46
2022-11-23T22:31:18.019Z,2.42
2022-11-23T22:33:46.006Z,2.48
2022-11-23T22:36:15.078Z,2.42
2022-11-23T22:38:42.170Z,2.49
2022-11-23T22:41:14.149Z,2.51
2022-11-23T22:43:40.991Z,2.48
2022-11-23T22:46:13.232Z,2.45
2022-11-23T22:48:42.822Z,2.54
2022-11-23T22:51:11.806Z,2.71
2022-11-23T22:53:44.582Z,2.55
2022-11-23T22:56:21.075Z,2.47
2022-11-23T22:58:48.655Z,2.43
2022-11-23T23:01:17.963Z,2.69
2022-11-23T23:03:45.257Z,2.60
2022-11-23T23:06:17.196Z,2.53
2022-11-23T23:08:44.056Z,2.54
2022-11-23T23:11:10.659Z,2.49
2022-11-23T23:13:37.410Z,2.59
2022-11-23T23:16:07.337Z,2.49
2022-11-23T23:18:34.329Z,2.49
2022-11-23T23:21:10.915Z,2.47
2022-11-23T23:23:43.097Z,2.45
2022-11-23T23:26:10.627Z,2.50
2022-11-23T23:28:37.380Z,2.53
2022-11-23T23:31:06.614Z,2.60
2022-11-23T23:33:33.773Z,2.61
2022-11-23T23:36:08.171Z,2.68
2022-11-23T23:38:36.221Z,2.64
2022-11-23T23:41:02.899Z,2.67
2022-11-23T23:43:29.755Z,2.73
2022-11-23T23:45:58.960Z,2.77
2022-11-23T23:48:28.558Z,2.72
2022-11-23T23:50:55.604Z,2.79
2022-11-23T23:53:22.238Z,2.76
2022-11-23T23:55:59.540Z,2.77
2022-11-23T23:58:26.091Z,2.79
